sensor_id;sensor_type;location;lat;lon;timestamp;temperature;humidity
32660;DHT22;19064;47.912;12.308;2023-04-24T00:00:46;10.50;99.90
32660;DHT22;19064;47.912;12.308;2023-04-24T00:03:14;10.50;99.90
32660;DHT22;19064;47.912;12.308;2023-04-24T00:05:41;10.50;99.90
32660;DHT22;19064;47.912;12.308;2023-04-24T00:08:07;10.60;99.90
32660;DHT22;19064;47.912;12.308;2023-04-24T00:10:34;10.60;99.90
32660;DHT22;19064;47.912;12.308;2023-04-24T00:13:01;10.50;99.90
32660;DHT22;19064;47.912;12.308;2023-04-24T00:15:28;10.50;99.90
32660;DHT22;19064;47.912;12.308;2023-04-24T00:17:54;10.50;99.90
32660;DHT22;19064;47.912;12.308;2023-04-24T00:20:23;10.50;99.90
32660;DHT22;19064;47.912;12.308;2023-04-24T00:22:49;10.50;99.90
32660;DHT22;19064;47.912;12.308;2023-04-24T00:25:16;10.50;99.90
32660;DHT22;19064;47.912;12.308;2023-04-24T00:27:43;10.50;99.90
32660;DHT22;19064;47.912;12.308;2023-04-24T00:30:10;10.50;99.90
32660;DHT22;19064;47.912;12.308;2023-04-24T00:32:37;10.50;99.90
32660;DHT22;19064;47.912;12.308;2023-04-24T00:35:05;10.60;99.90
32660;DHT22;19064;47.912;12.308;2023-04-24T00:37:33;10.60;99.90
32660;DHT22;19064;47.912;12.308;2023-04-24T00:40:00;10.50;99.90
32660;DHT22;19064;47.912;12.308;2023-04-24T00:42:27;10.50;99.90
32660;DHT22;19064;47.912;12.308;2023-04-24T00:44:54;10.60;99.90
32660;DHT22;19064;47.912;12.308;2023-04-24T00:47:21;10.60;99.90
32660;DHT22;19064;47.912;12.308;2023-04-24T00:49:48;10.60;99.90
32660;DHT22;19064;47.912;12.308;2023-04-24T00:52:15;10.60;99.90
32660;DHT22;19064;47.912;12.308;2023-04-24T00:54:44;10.40;99.90
32660;DHT22;19064;47.912;12.308;2023-04-24T00:57:11;10.40;99.90
32660;DHT22;19064;47.912;12.308;2023-04-24T00:59:39;10.40;99.90
32660;DHT22;19064;47.912;12.308;2023-04-24T01:02:06;10.20;99.90
32660;DHT22;19064;47.912;12.308;2023-04-24T01:04:34;10.20;99.90
32660;DHT22;19064;47.912;12.308;2023-04-24T01:07:01;10.10;99.90
32660;DHT22;19064;47.912;12.308;2023-04-24T01:09:28;9.90;99.90
32660;DHT22;19064;47.912;12.308;2023-04-24T01:11:57;10.00;99.90
32660;DHT22;19064;47.912;12.308;2023-04-24T01:14:24;9.90;99.90
32660;DHT22;19064;47.912;12.308;2023-04-24T01:16:51;9.90;99.90
32660;DHT22;19064;47.912;12.308;2023-04-24T01:19:19;9.90;99.90
32660;DHT22;19064;47.912;12.308;2023-04-24T01:21:47;9.80;99.90
32660;DHT22;19064;47.912;12.308;2023-04-24T01:24:18;9.90;99.90
32660;DHT22;19064;47.912;12.308;2023-04-24T01:26:46;10.00;99.90
32660;DHT22;19064;47.912;12.308;2023-04-24T01:29:13;10.10;99.90
32660;DHT22;19064;47.912;12.308;2023-04-24T01:31:39;10.10;99.90
32660;DHT22;19064;47.912;12.308;2023-04-24T01:34:06;10.10;99.90
32660;DHT22;19064;47.912;12.308;2023-04-24T01:36:34;10.20;99.90
32660;DHT22;19064;47.912;12.308;2023-04-24T01:39:01;10.20;99.90
32660;DHT22;19064;47.912;12.308;2023-04-24T01:41:30;10.20;99.90
32660;DHT22;19064;47.912;12.308;2023-04-24T01:43:57;10.20;99.90
32660;DHT22;19064;47.912;12.308;2023-04-24T01:46:24;10.20;99.90
32660;DHT22;19064;47.912;12.308;2023-04-24T01:48:51;10.00;99.90
32660;DHT22;19064;47.912;12.308;2023-04-24T01:51:18;10.00;99.90
32660;DHT22;19064;47.912;12.308;2023-04-24T01:53:45;9.90;99.90
32660;DHT22;19064;47.912;12.308;2023-04-24T01:56:11;9.80;99.90
32660;DHT22;19064;47.912;12.308;2023-04-24T01:58:40;9.70;99.90
32660;DHT22;19064;47.912;12.308;2023-04-24T02:01:07;9.50;99.90
32660;DHT22;19064;47.912;12.308;2023-04-24T02:03:34;9.50;99.90
32660;DHT22;19064;47.912;12.308;2023-04-24T02:06:00;9.40;99.90
32660;DHT22;19064;47.912;12.308;2023-04-24T02:08:27;9.60;99.90
32660;DHT22;19064;47.912;12.308;2023-04-24T02:10:54;9.80;99.90
32660;DHT22;19064;47.912;12.308;2023-04-24T02:13:21;9.90;99.90
32660;DHT22;19064;47.912;12.308;2023-04-24T02:15:49;9.90;99.90
32660;DHT22;19064;47.912;12.308;2023-04-24T02:18:15;9.80;99.90
32660;DHT22;19064;47.912;12.308;2023-04-24T02:20:42;9.70;99.90
32660;DHT22;19064;47.912;12.308;2023-04-24T02:23:09;9.60;99.90
32660;DHT22;19064;47.912;12.308;2023-04-24T02:25:35;9.60;99.90
32660;DHT22;19064;47.912;12.308;2023-04-24T02:28:02;9.50;99.90
32660;DHT22;19064;47.912;12.308;2023-04-24T02:30:29;9.50;99.90
32660;DHT22;19064;47.912;12.308;2023-04-24T02:32:57;9.50;99.90
32660;DHT22;19064;47.912;12.308;2023-04-24T02:35:24;9.60;99.90
32660;DHT22;19064;47.912;12.308;2023-04-24T02:37:51;9.60;99.90
32660;DHT22;19064;47.912;12.308;2023-04-24T02:40:18;9.70;99.90
32660;DHT22;19064;47.912;12.308;2023-04-24T02:42:44;9.70;99.90
32660;DHT22;19064;47.912;12.308;2023-04-24T02:45:11;9.60;99.90
32660;DHT22;19064;47.912;12.308;2023-04-24T02:47:38;9.70;99.90
32660;DHT22;19064;47.912;12.308;2023-04-24T02:50:07;9.70;99.90
32660;DHT22;19064;47.912;12.308;2023-04-24T02:52:34;9.70;99.90
32660;DHT22;19064;47.912;12.308;2023-04-24T02:55:01;9.50;99.90
32660;DHT22;19064;47.912;12.308;2023-04-24T02:57:27;9.60;99.90
32660;DHT22;19064;47.912;12.308;2023-04-24T02:59:54;9.70;99.90
32660;DHT22;19064;47.912;12.308;2023-04-24T03:02:21;9.70;99.90
32660;DHT22;19064;47.912;12.308;2023-04-24T03:04:48;9.60;99.90
32660;DHT22;19064;47.912;12.308;2023-04-24T03:07:16;9.60;99.90
32660;DHT22;19064;47.912;12.308;2023-04-24T03:09:46;9.70;99.90
32660;DHT22;19064;47.912;12.308;2023-04-24T03:12:12;9.60;99.90
32660;DHT22;19064;47.912;12.308;2023-04-24T03:14:39;9.70;99.90
32660;DHT22;19064;47.912;12.308;2023-04-24T03:17:06;9.90;99.90
32660;DHT22;19064;47.912;12.308;2023-04-24T03:19:33;9.80;99.90
32660;DHT22;19064;47.912;12.308;2023-04-24T03:22:01;9.90;99.90
32660;DHT22;19064;47.912;12.308;2023-04-24T03:24:29;9.90;99.90
32660;DHT22;19064;47.912;12.308;2023-04-24T03:26:57;9.90;99.90
32660;DHT22;19064;47.912;12.308;2023-04-24T03:29:23;9.80;99.90
32660;DHT22;19064;47.912;12.308;2023-04-24T03:31:50;9.80;99.90
32660;DHT22;19064;47.912;12.308;2023-04-24T03:34:17;9.80;99.90
32660;DHT22;19064;47.912;12.308;2023-04-24T03:36:43;9.90;99.90
32660;DHT22;19064;47.912;12.308;2023-04-24T03:39:12;9.80;99.90
32660;DHT22;19064;47.912;12.308;2023-04-24T03:41:40;9.80;99.90
32660;DHT22;19064;47.912;12.308;2023-04-24T03:44:07;9.80;99.90
32660;DHT22;19064;47.912;12.308;2023-04-24T03:46:34;9.80;99.90
32660;DHT22;19064;47.912;12.308;2023-04-24T03:49:01;9.80;99.90
32660;DHT22;19064;47.912;12.308;2023-04-24T03:51:27;9.80;99.90
32660;DHT22;19064;47.912;12.308;2023-04-24T03:53:55;9.60;99.90
32660;DHT22;19064;47.912;12.308;2023-04-24T03:56:22;9.70;99.90
32660;DHT22;19064;47.912;12.308;2023-04-24T03:58:50;9.70;99.90
32660;DHT22;19064;47.912;12.308;2023-04-24T04:01:17;9.70;99.90
32660;DHT22;19064;47.912;12.308;2023-04-24T04:03:46;9.70;99.90
32660;DHT22;19064;47.912;12.308;2023-04-24T04:06:13;9.70;99.90
32660;DHT22;19064;47.912;12.308;2023-04-24T04:08:40;9.70;99.90
32660;DHT22;19064;47.912;12.308;2023-04-24T04:11:06;9.70;99.90
32660;DHT22;19064;47.912;12.308;2023-04-24T04:13:33;9.60;99.90
32660;DHT22;19064;47.912;12.308;2023-04-24T04:16:01;9.60;99.90
32660;DHT22;19064;47.912;12.308;2023-04-24T04:18:29;9.60;99.90
32660;DHT22;19064;47.912;12.308;2023-04-24T04:20:58;9.60;99.90
32660;DHT22;19064;47.912;12.308;2023-04-24T04:23:26;9.70;99.90
32660;DHT22;19064;47.912;12.308;2023-04-24T04:25:54;9.60;99.90
32660;DHT22;19064;47.912;12.308;2023-04-24T04:28:23;9.60;99.90
32660;DHT22;19064;47.912;12.308;2023-04-24T04:30:51;9.60;99.90
32660;DHT22;19064;47.912;12.308;2023-04-24T04:33:21;9.60;99.90
32660;DHT22;19064;47.912;12.308;2023-04-24T04:35:57;9.60;99.90
32660;DHT22;19064;47.912;12.308;2023-04-24T04:38:26;9.60;99.90
32660;DHT22;19064;47.912;12.308;2023-04-24T04:40:59;9.60;99.90
32660;DHT22;19064;47.912;12.308;2023-04-24T04:43:26;9.50;99.90
32660;DHT22;19064;47.912;12.308;2023-04-24T04:45:53;9.50;99.90
32660;DHT22;19064;47.912;12.308;2023-04-24T04:48:23;9.50;99.90
32660;DHT22;19064;47.912;12.308;2023-04-24T04:50:51;9.30;99.90
32660;DHT22;19064;47.912;12.308;2023-04-24T04:53:17;9.20;99.90
32660;DHT22;19064;47.912;12.308;2023-04-24T04:55:45;9.20;99.90
32660;DHT22;19064;47.912;12.308;2023-04-24T04:58:14;9.30;99.90
32660;DHT22;19064;47.912;12.308;2023-04-24T05:00:41;9.20;99.90
32660;DHT22;19064;47.912;12.308;2023-04-24T05:03:09;9.20;99.90
32660;DHT22;19064;47.912;12.308;2023-04-24T05:05:38;9.10;99.90
32660;DHT22;19064;47.912;12.308;2023-04-24T05:08:07;8.90;99.90
32660;DHT22;19064;47.912;12.308;2023-04-24T05:10:35;8.80;99.90
32660;DHT22;19064;47.912;12.308;2023-04-24T05:13:02;8.70;99.90
32660;DHT22;19064;47.912;12.308;2023-04-24T05:15:30;8.60;99.90
32660;DHT22;19064;47.912;12.308;2023-04-24T05:17:59;8.70;99.90
32660;DHT22;19064;47.912;12.308;2023-04-24T05:20:27;8.70;99.90
32660;DHT22;19064;47.912;12.308;2023-04-24T05:22:57;8.80;99.90
32660;DHT22;19064;47.912;12.308;2023-04-24T05:25:25;8.90;99.90
32660;DHT22;19064;47.912;12.308;2023-04-24T05:27:53;9.00;99.90
32660;DHT22;19064;47.912;12.308;2023-04-24T05:30:21;9.00;99.90
32660;DHT22;19064;47.912;12.308;2023-04-24T05:32:49;9.00;99.90
32660;DHT22;19064;47.912;12.308;2023-04-24T05:35:17;8.90;99.90
32660;DHT22;19064;47.912;12.308;2023-04-24T05:37:45;8.80;99.90
32660;DHT22;19064;47.912;12.308;2023-04-24T05:40:14;8.80;99.90
32660;DHT22;19064;47.912;12.308;2023-04-24T05:42:42;8.80;99.90
32660;DHT22;19064;47.912;12.308;2023-04-24T05:45:10;8.80;99.90
32660;DHT22;19064;47.912;12.308;2023-04-24T05:47:41;8.90;99.90
32660;DHT22;19064;47.912;12.308;2023-04-24T05:50:10;8.90;99.90
32660;DHT22;19064;47.912;12.308;2023-04-24T05:52:37;9.00;99.90
32660;DHT22;19064;47.912;12.308;2023-04-24T05:55:05;9.00;99.90
32660;DHT22;19064;47.912;12.308;2023-04-24T05:57:34;9.00;99.90
32660;DHT22;19064;47.912;12.308;2023-04-24T06:00:01;9.10;99.90
32660;DHT22;19064;47.912;12.308;2023-04-24T06:02:29;9.00;99.90
32660;DHT22;19064;47.912;12.308;2023-04-24T06:04:57;9.10;99.90
32660;DHT22;19064;47.912;12.308;2023-04-24T06:07:25;9.00;99.90
32660;DHT22;19064;47.912;12.308;2023-04-24T06:09:52;9.00;99.90
32660;DHT22;19064;47.912;12.308;2023-04-24T06:12:19;9.00;99.90
32660;DHT22;19064;47.912;12.308;2023-04-24T06:14:47;9.00;99.90
32660;DHT22;19064;47.912;12.308;2023-04-24T06:17:15;9.00;99.90
32660;DHT22;19064;47.912;12.308;2023-04-24T06:19:41;9.00;99.90
32660;DHT22;19064;47.912;12.308;2023-04-24T06:22:08;8.90;99.90
32660;DHT22;19064;47.912;12.308;2023-04-24T06:24:35;9.00;99.90
32660;DHT22;19064;47.912;12.308;2023-04-24T06:27:02;9.00;99.90
32660;DHT22;19064;47.912;12.308;2023-04-24T06:29:30;9.10;99.90
32660;DHT22;19064;47.912;12.308;2023-04-24T06:31:58;9.20;99.90
32660;DHT22;19064;47.912;12.308;2023-04-24T06:34:25;9.20;99.90
32660;DHT22;19064;47.912;12.308;2023-04-24T06:36:51;9.20;99.90
32660;DHT22;19064;47.912;12.308;2023-04-24T06:39:18;9.20;99.90
32660;DHT22;19064;47.912;12.308;2023-04-24T06:41:45;9.30;99.90
32660;DHT22;19064;47.912;12.308;2023-04-24T06:44:11;9.40;99.90
32660;DHT22;19064;47.912;12.308;2023-04-24T06:46:40;9.40;99.90
32660;DHT22;19064;47.912;12.308;2023-04-24T06:49:08;9.50;99.90
32660;DHT22;19064;47.912;12.308;2023-04-24T06:51:35;9.70;99.90
32660;DHT22;19064;47.912;12.308;2023-04-24T06:54:02;9.80;99.90
32660;DHT22;19064;47.912;12.308;2023-04-24T06:56:28;9.80;99.90
32660;DHT22;19064;47.912;12.308;2023-04-24T06:58:56;10.00;99.90
32660;DHT22;19064;47.912;12.308;2023-04-24T07:01:23;10.00;99.90
32660;DHT22;19064;47.912;12.308;2023-04-24T07:03:50;10.10;99.90
32660;DHT22;19064;47.912;12.308;2023-04-24T07:06:19;10.10;99.90
32660;DHT22;19064;47.912;12.308;2023-04-24T07:08:49;10.10;99.90
32660;DHT22;19064;47.912;12.308;2023-04-24T07:11:18;10.20;99.90
32660;DHT22;19064;47.912;12.308;2023-04-24T07:13:47;10.30;99.90
32660;DHT22;19064;47.912;12.308;2023-04-24T07:16:14;10.40;99.90
32660;DHT22;19064;47.912;12.308;2023-04-24T07:18:40;10.30;99.90
32660;DHT22;19064;47.912;12.308;2023-04-24T07:21:07;10.50;99.90
32660;DHT22;19064;47.912;12.308;2023-04-24T07:23:35;10.60;99.90
32660;DHT22;19064;47.912;12.308;2023-04-24T07:26:02;10.60;99.90
32660;DHT22;19064;47.912;12.308;2023-04-24T07:28:29;10.60;99.90
32660;DHT22;19064;47.912;12.308;2023-04-24T07:30:56;10.50;99.90
32660;DHT22;19064;47.912;12.308;2023-04-24T07:33:24;10.50;99.90
32660;DHT22;19064;47.912;12.308;2023-04-24T07:35:53;10.60;99.90
32660;DHT22;19064;47.912;12.308;2023-04-24T07:38:20;10.60;99.90
32660;DHT22;19064;47.912;12.308;2023-04-24T07:40:49;10.60;99.90
32660;DHT22;19064;47.912;12.308;2023-04-24T07:43:15;10.60;99.90
32660;DHT22;19064;47.912;12.308;2023-04-24T07:45:42;10.60;99.90
32660;DHT22;19064;47.912;12.308;2023-04-24T07:48:09;10.70;99.90
32660;DHT22;19064;47.912;12.308;2023-04-24T07:50:36;10.60;99.90
32660;DHT22;19064;47.912;12.308;2023-04-24T07:53:02;10.70;99.90
32660;DHT22;19064;47.912;12.308;2023-04-24T07:55:29;10.60;99.90
32660;DHT22;19064;47.912;12.308;2023-04-24T07:57:58;10.50;99.90
32660;DHT22;19064;47.912;12.308;2023-04-24T08:00:25;10.50;99.90
32660;DHT22;19064;47.912;12.308;2023-04-24T08:02:51;10.50;99.90
32660;DHT22;19064;47.912;12.308;2023-04-24T08:05:18;10.60;99.90
32660;DHT22;19064;47.912;12.308;2023-04-24T08:07:45;10.60;99.90
32660;DHT22;19064;47.912;12.308;2023-04-24T08:10:14;10.70;99.90
32660;DHT22;19064;47.912;12.308;2023-04-24T08:12:41;10.70;99.90
32660;DHT22;19064;47.912;12.308;2023-04-24T08:15:09;10.70;99.90
32660;DHT22;19064;47.912;12.308;2023-04-24T08:17:36;10.80;99.90
32660;DHT22;19064;47.912;12.308;2023-04-24T08:20:04;10.80;99.90
32660;DHT22;19064;47.912;12.308;2023-04-24T08:22:31;10.90;99.90
32660;DHT22;19064;47.912;12.308;2023-04-24T08:25:00;11.00;99.90
32660;DHT22;19064;47.912;12.308;2023-04-24T08:27:27;11.20;99.90
32660;DHT22;19064;47.912;12.308;2023-04-24T08:29:54;11.20;99.90
32660;DHT22;19064;47.912;12.308;2023-04-24T08:32:22;11.20;99.90
32660;DHT22;19064;47.912;12.308;2023-04-24T08:34:48;11.20;99.90
32660;DHT22;19064;47.912;12.308;2023-04-24T08:37:18;11.40;99.90
32660;DHT22;19064;47.912;12.308;2023-04-24T08:39:44;11.40;99.90
32660;DHT22;19064;47.912;12.308;2023-04-24T08:42:11;11.50;99.90
32660;DHT22;19064;47.912;12.308;2023-04-24T08:44:39;11.60;99.90
32660;DHT22;19064;47.912;12.308;2023-04-24T08:47:07;11.70;99.90
32660;DHT22;19064;47.912;12.308;2023-04-24T08:49:36;11.70;99.90
32660;DHT22;19064;47.912;12.308;2023-04-24T08:52:04;11.70;99.90
32660;DHT22;19064;47.912;12.308;2023-04-24T08:54:32;11.70;99.90
32660;DHT22;19064;47.912;12.308;2023-04-24T08:57:01;11.60;99.90
32660;DHT22;19064;47.912;12.308;2023-04-24T08:59:29;11.60;99.90
32660;DHT22;19064;47.912;12.308;2023-04-24T09:01:56;11.60;99.90
32660;DHT22;19064;47.912;12.308;2023-04-24T09:04:25;11.50;99.90
32660;DHT22;19064;47.912;12.308;2023-04-24T09:06:55;11.40;99.90
32660;DHT22;19064;47.912;12.308;2023-04-24T09:09:23;11.30;99.90
32660;DHT22;19064;47.912;12.308;2023-04-24T09:11:51;11.20;99.90
32660;DHT22;19064;47.912;12.308;2023-04-24T09:14:21;11.10;99.90
32660;DHT22;19064;47.912;12.308;2023-04-24T09:16:49;10.90;99.90
32660;DHT22;19064;47.912;12.308;2023-04-24T09:19:16;10.90;99.90
32660;DHT22;19064;47.912;12.308;2023-04-24T09:21:46;10.80;99.90
32660;DHT22;19064;47.912;12.308;2023-04-24T09:24:18;10.80;99.90
32660;DHT22;19064;47.912;12.308;2023-04-24T09:26:48;10.90;99.90
32660;DHT22;19064;47.912;12.308;2023-04-24T09:29:15;10.80;99.90
32660;DHT22;19064;47.912;12.308;2023-04-24T09:31:42;10.80;99.90
32660;DHT22;19064;47.912;12.308;2023-04-24T09:34:09;10.80;99.90
32660;DHT22;19064;47.912;12.308;2023-04-24T09:36:37;10.80;99.90
32660;DHT22;19064;47.912;12.308;2023-04-24T09:39:06;10.80;99.90
32660;DHT22;19064;47.912;12.308;2023-04-24T09:41:35;10.80;99.90
32660;DHT22;19064;47.912;12.308;2023-04-24T09:44:11;10.80;99.90
32660;DHT22;19064;47.912;12.308;2023-04-24T09:46:38;10.90;99.90
32660;DHT22;19064;47.912;12.308;2023-04-24T09:49:08;10.90;99.90
32660;DHT22;19064;47.912;12.308;2023-04-24T09:51:37;10.80;99.90
32660;DHT22;19064;47.912;12.308;2023-04-24T09:54:05;10.80;99.90
32660;DHT22;19064;47.912;12.308;2023-04-24T09:56:42;10.80;99.90
32660;DHT22;19064;47.912;12.308;2023-04-24T09:59:09;10.80;99.90
32660;DHT22;19064;47.912;12.308;2023-04-24T10:01:35;10.70;99.90
32660;DHT22;19064;47.912;12.308;2023-04-24T10:04:04;10.70;99.90
32660;DHT22;19064;47.912;12.308;2023-04-24T10:06:33;10.70;99.90
32660;DHT22;19064;47.912;12.308;2023-04-24T10:09:00;10.70;99.90
32660;DHT22;19064;47.912;12.308;2023-04-24T10:11:27;10.80;99.90
32660;DHT22;19064;47.912;12.308;2023-04-24T10:13:55;10.80;99.90
32660;DHT22;19064;47.912;12.308;2023-04-24T10:16:24;10.90;99.90
32660;DHT22;19064;47.912;12.308;2023-04-24T10:18:52;10.90;99.90
32660;DHT22;19064;47.912;12.308;2023-04-24T10:21:19;10.90;99.90
32660;DHT22;19064;47.912;12.308;2023-04-24T10:23:48;10.90;99.90
32660;DHT22;19064;47.912;12.308;2023-04-24T10:26:16;11.00;99.90
32660;DHT22;19064;47.912;12.308;2023-04-24T10:28:45;11.10;99.90
32660;DHT22;19064;47.912;12.308;2023-04-24T10:31:14;11.20;99.90
32660;DHT22;19064;47.912;12.308;2023-04-24T10:33:42;11.30;99.90
32660;DHT22;19064;47.912;12.308;2023-04-24T10:36:10;11.50;99.90
32660;DHT22;19064;47.912;12.308;2023-04-24T10:38:38;11.70;99.90
32660;DHT22;19064;47.912;12.308;2023-04-24T10:41:08;11.90;99.90
32660;DHT22;19064;47.912;12.308;2023-04-24T10:43:36;12.00;99.90
32660;DHT22;19064;47.912;12.308;2023-04-24T10:46:04;11.90;99.90
32660;DHT22;19064;47.912;12.308;2023-04-24T10:48:33;11.80;99.90
32660;DHT22;19064;47.912;12.308;2023-04-24T10:51:00;11.80;99.90
32660;DHT22;19064;47.912;12.308;2023-04-24T10:53:28;11.80;99.90
32660;DHT22;19064;47.912;12.308;2023-04-24T10:55:58;11.80;99.90
32660;DHT22;19064;47.912;12.308;2023-04-24T10:58:37;12.00;99.90
32660;DHT22;19064;47.912;12.308;2023-04-24T11:01:05;12.20;99.90
32660;DHT22;19064;47.912;12.308;2023-04-24T11:03:35;12.30;99.90
32660;DHT22;19064;47.912;12.308;2023-04-24T11:06:04;12.40;99.90
32660;DHT22;19064;47.912;12.308;2023-04-24T11:08:36;12.70;99.90
32660;DHT22;19064;47.912;12.308;2023-04-24T11:11:08;12.80;99.90
32660;DHT22;19064;47.912;12.308;2023-04-24T11:14:09;12.70;99.90
32660;DHT22;19064;47.912;12.308;2023-04-24T11:16:41;12.60;99.90
32660;DHT22;19064;47.912;12.308;2023-04-24T11:19:21;12.70;99.90
32660;DHT22;19064;47.912;12.308;2023-04-24T11:21:55;12.70;99.90
32660;DHT22;19064;47.912;12.308;2023-04-24T11:24:36;12.70;99.90
32660;DHT22;19064;47.912;12.308;2023-04-24T11:27:09;12.80;99.90
32660;DHT22;19064;47.912;12.308;2023-04-24T11:29:44;12.80;99.90
32660;DHT22;19064;47.912;12.308;2023-04-24T11:32:17;12.80;99.90
32660;DHT22;19064;47.912;12.308;2023-04-24T11:34:48;12.90;99.90
32660;DHT22;19064;47.912;12.308;2023-04-24T11:37:17;13.00;99.90
32660;DHT22;19064;47.912;12.308;2023-04-24T11:39:45;13.10;99.90
32660;DHT22;19064;47.912;12.308;2023-04-24T11:42:14;13.10;99.90
32660;DHT22;19064;47.912;12.308;2023-04-24T11:44:43;13.00;99.90
32660;DHT22;19064;47.912;12.308;2023-04-24T11:47:11;12.80;99.90
32660;DHT22;19064;47.912;12.308;2023-04-24T11:49:39;12.70;99.90
32660;DHT22;19064;47.912;12.308;2023-04-24T11:52:09;12.70;99.90
32660;DHT22;19064;47.912;12.308;2023-04-24T11:54:47;12.60;99.90
32660;DHT22;19064;47.912;12.308;2023-04-24T11:57:15;12.50;99.90
32660;DHT22;19064;47.912;12.308;2023-04-24T11:59:41;12.50;99.90
32660;DHT22;19064;47.912;12.308;2023-04-24T12:02:20;12.40;99.90
32660;DHT22;19064;47.912;12.308;2023-04-24T12:04:47;12.30;99.90
32660;DHT22;19064;47.912;12.308;2023-04-24T12:07:18;12.10;99.90
32660;DHT22;19064;47.912;12.308;2023-04-24T12:09:47;11.90;99.90
32660;DHT22;19064;47.912;12.308;2023-04-24T12:12:17;11.80;99.90
32660;DHT22;19064;47.912;12.308;2023-04-24T12:14:48;11.80;99.90
32660;DHT22;19064;47.912;12.308;2023-04-24T12:17:24;12.00;99.90
32660;DHT22;19064;47.912;12.308;2023-04-24T12:19:58;12.10;99.90
32660;DHT22;19064;47.912;12.308;2023-04-24T12:22:36;12.20;99.90
32660;DHT22;19064;47.912;12.308;2023-04-24T12:25:10;12.30;99.90
32660;DHT22;19064;47.912;12.308;2023-04-24T12:27:39;12.40;99.90
32660;DHT22;19064;47.912;12.308;2023-04-24T12:30:11;12.30;99.90
32660;DHT22;19064;47.912;12.308;2023-04-24T12:32:43;12.20;99.90
32660;DHT22;19064;47.912;12.308;2023-04-24T12:35:11;11.70;99.90
32660;DHT22;19064;47.912;12.308;2023-04-24T12:37:42;11.40;99.90
32660;DHT22;19064;47.912;12.308;2023-04-24T12:40:11;11.30;99.90
32660;DHT22;19064;47.912;12.308;2023-04-24T12:42:43;11.20;99.90
32660;DHT22;19064;47.912;12.308;2023-04-24T12:45:13;11.30;99.90
32660;DHT22;19064;47.912;12.308;2023-04-24T12:47:45;11.30;99.90
32660;DHT22;19064;47.912;12.308;2023-04-24T12:50:14;11.30;99.90
32660;DHT22;19064;47.912;12.308;2023-04-24T12:52:47;11.50;99.90
32660;DHT22;19064;47.912;12.308;2023-04-24T12:55:14;11.60;99.90
32660;DHT22;19064;47.912;12.308;2023-04-24T12:57:41;11.70;99.90
32660;DHT22;19064;47.912;12.308;2023-04-24T13:00:09;11.90;99.90
32660;DHT22;19064;47.912;12.308;2023-04-24T13:02:37;12.00;99.90
32660;DHT22;19064;47.912;12.308;2023-04-24T13:05:05;12.00;99.90
32660;DHT22;19064;47.912;12.308;2023-04-24T13:07:32;12.10;99.90
32660;DHT22;19064;47.912;12.308;2023-04-24T13:10:00;12.20;99.90
32660;DHT22;19064;47.912;12.308;2023-04-24T13:12:27;12.20;99.90
32660;DHT22;19064;47.912;12.308;2023-04-24T13:14:54;12.10;99.90
32660;DHT22;19064;47.912;12.308;2023-04-24T13:17:21;12.20;99.90
32660;DHT22;19064;47.912;12.308;2023-04-24T13:19:50;12.00;99.90
32660;DHT22;19064;47.912;12.308;2023-04-24T13:22:17;11.70;99.90
32660;DHT22;19064;47.912;12.308;2023-04-24T13:24:45;11.00;99.90
32660;DHT22;19064;47.912;12.308;2023-04-24T13:27:15;10.30;99.90
32660;DHT22;19064;47.912;12.308;2023-04-24T13:29:42;9.90;99.90
32660;DHT22;19064;47.912;12.308;2023-04-24T13:32:09;9.70;99.90
32660;DHT22;19064;47.912;12.308;2023-04-24T13:34:36;9.70;99.90
32660;DHT22;19064;47.912;12.308;2023-04-24T13:37:04;9.70;99.90
32660;DHT22;19064;47.912;12.308;2023-04-24T13:39:31;9.80;99.90
32660;DHT22;19064;47.912;12.308;2023-04-24T13:41:57;9.90;99.90
32660;DHT22;19064;47.912;12.308;2023-04-24T13:44:26;9.80;99.90
32660;DHT22;19064;47.912;12.308;2023-04-24T13:46:54;9.80;99.90
32660;DHT22;19064;47.912;12.308;2023-04-24T13:49:23;9.80;99.90
32660;DHT22;19064;47.912;12.308;2023-04-24T13:51:51;9.70;99.90
32660;DHT22;19064;47.912;12.308;2023-04-24T13:54:18;9.70;99.90
32660;DHT22;19064;47.912;12.308;2023-04-24T13:56:45;9.70;99.90
32660;DHT22;19064;47.912;12.308;2023-04-24T13:59:12;9.60;99.90
32660;DHT22;19064;47.912;12.308;2023-04-24T14:01:40;9.60;99.90
32660;DHT22;19064;47.912;12.308;2023-04-24T14:04:07;9.70;99.90
32660;DHT22;19064;47.912;12.308;2023-04-24T14:06:34;9.70;99.90
32660;DHT22;19064;47.912;12.308;2023-04-24T14:09:01;9.80;99.90
32660;DHT22;19064;47.912;12.308;2023-04-24T14:11:28;9.90;99.90
32660;DHT22;19064;47.912;12.308;2023-04-24T14:13:55;9.90;99.90
32660;DHT22;19064;47.912;12.308;2023-04-24T14:16:24;10.00;99.90
32660;DHT22;19064;47.912;12.308;2023-04-24T14:18:53;10.10;99.90
32660;DHT22;19064;47.912;12.308;2023-04-24T14:21:20;10.20;99.90
32660;DHT22;19064;47.912;12.308;2023-04-24T14:23:47;10.40;99.90
32660;DHT22;19064;47.912;12.308;2023-04-24T14:26:13;10.50;99.90
32660;DHT22;19064;47.912;12.308;2023-04-24T14:28:40;10.70;99.90
32660;DHT22;19064;47.912;12.308;2023-04-24T14:31:07;10.80;99.90
32660;DHT22;19064;47.912;12.308;2023-04-24T14:33:34;10.90;99.90
32660;DHT22;19064;47.912;12.308;2023-04-24T14:36:02;10.90;99.90
32660;DHT22;19064;47.912;12.308;2023-04-24T14:38:31;10.90;99.90
32660;DHT22;19064;47.912;12.308;2023-04-24T14:40:57;10.90;99.90
32660;DHT22;19064;47.912;12.308;2023-04-24T14:43:24;11.00;99.90
32660;DHT22;19064;47.912;12.308;2023-04-24T14:45:51;11.00;99.90
32660;DHT22;19064;47.912;12.308;2023-04-24T14:48:18;11.20;99.90
32660;DHT22;19064;47.912;12.308;2023-04-24T14:50:44;11.10;99.90
32660;DHT22;19064;47.912;12.308;2023-04-24T14:53:13;11.00;99.90
32660;DHT22;19064;47.912;12.308;2023-04-24T14:55:40;11.00;99.90
32660;DHT22;19064;47.912;12.308;2023-04-24T14:58:07;11.00;99.90
32660;DHT22;19064;47.912;12.308;2023-04-24T15:00:34;10.90;99.90
32660;DHT22;19064;47.912;12.308;2023-04-24T15:03:01;10.90;99.90
32660;DHT22;19064;47.912;12.308;2023-04-24T15:05:27;11.00;99.90
32660;DHT22;19064;47.912;12.308;2023-04-24T15:07:55;11.00;99.90
32660;DHT22;19064;47.912;12.308;2023-04-24T15:10:23;10.90;99.90
32660;DHT22;19064;47.912;12.308;2023-04-24T15:12:51;11.00;99.90
32660;DHT22;19064;47.912;12.308;2023-04-24T15:15:18;11.00;99.90
32660;DHT22;19064;47.912;12.308;2023-04-24T15:17:44;11.00;99.90
32660;DHT22;19064;47.912;12.308;2023-04-24T15:20:11;11.00;99.90
32660;DHT22;19064;47.912;12.308;2023-04-24T15:22:38;11.00;99.90
32660;DHT22;19064;47.912;12.308;2023-04-24T15:25:06;11.00;99.90
32660;DHT22;19064;47.912;12.308;2023-04-24T15:27:41;11.10;99.90